createdAt,value
2022-11-30T00:02:33.095Z,99.90
2022-11-30T00:05:39.890Z,99.90
2022-11-30T00:08:43.356Z,99.90
2022-11-30T00:11:46.632Z,99.90
2022-11-30T00:14:49.899Z,99.90
2022-11-30T00:18:01.930Z,99.90
2022-11-30T00:21:09.745Z,99.90
2022-11-30T00:24:15.278Z,99.90
2022-11-30T00:27:23.767Z,99.90
2022-11-30T00:30:27.382Z,99.90
2022-11-30T00:33:41.308Z,99.90
2022-11-30T00:36:54.202Z,99.90
2022-11-30T00:40:03.541Z,99.90
2022-11-30T00:43:15.218Z,99.90
2022-11-30T00:49:45.226Z,99.90
2022-11-30T00:52:51.120Z,99.90
2022-11-30T00:55:57.242Z,99.90
2022-11-30T00:59:00.538Z,99.90
2022-11-30T01:02:03.721Z,99.90
2022-11-30T01:05:09.014Z,99.90
2022-11-30T01:08:14.076Z,99.90
2022-11-30T01:11:19.450Z,99.90
2022-11-30T01:14:22.677Z,99.90
2022-11-30T01:17:25.914Z,99.90
2022-11-30T01:20:30.464Z,99.90
2022-11-30T01:23:33.818Z,99.90
2022-11-30T01:26:37.302Z,99.90
2022-11-30T01:29:40.475Z,99.90
2022-11-30T01:32:43.656Z,99.90
2022-11-30T01:35:48.220Z,99.90
2022-11-30T01:38:52.915Z,99.90
2022-11-30T01:41:56.448Z,99.90
2022-11-30T01:45:01.426Z,99.90
2022-11-30T01:48:05.663Z,99.90
2022-11-30T01:51:10.254Z,99.90
2022-11-30T01:54:16.800Z,99.90
2022-11-30T01:57:25.887Z,99.90
2022-11-30T02:04:14.800Z,99.90
2022-11-30T02:07:19.510Z,99.90
2022-11-30T02:10:27.277Z,99.90
2022-11-30T02:13:45.854Z,99.90
2022-11-30T02:16:58.450Z,99.90
2022-11-30T02:20:36.231Z,99.90
2022-11-30T02:24:28.053Z,99.90
2022-11-30T02:27:47.024Z,99.90
2022-11-30T02:30:54.662Z,99.90
2022-11-30T02:34:00.643Z,99.90
2022-11-30T02:37:05.989Z,99.90
2022-11-30T02:40:10.894Z,99.90
2022-11-30T02:43:14.743Z,99.90
2022-11-30T02:46:24.476Z,99.90
2022-11-30T02:49:33.866Z,99.90
2022-11-30T02:52:37.324Z,99.90
2022-11-30T02:55:40.995Z,99.90
2022-11-30T02:58:44.222Z,99.90
2022-11-30T03:01:48.935Z,99.90
2022-11-30T03:04:52.184Z,99.90
2022-11-30T03:07:55.341Z,99.90
2022-11-30T03:11:02.267Z,99.90
2022-11-30T03:14:05.403Z,99.90
2022-11-30T03:17:09.943Z,99.90
2022-11-30T03:20:13.291Z,99.90
2022-11-30T03:23:16.397Z,99.90
2022-11-30T03:26:19.537Z,99.90
2022-11-30T03:29:22.789Z,99.90
2022-11-30T03:32:27.649Z,99.90
2022-11-30T03:35:30.988Z,99.90
2022-11-30T03:38:34.673Z,99.90
2022-11-30T03:41:37.897Z,99.90
2022-11-30T03:44:41.090Z,99.90
2022-11-30T03:47:45.601Z,99.90
2022-11-30T03:50:50.081Z,99.90
2022-11-30T03:53:53.445Z,99.90
2022-11-30T03:56:58.667Z,99.90
2022-11-30T04:03:19.723Z,99.90
2022-11-30T04:06:23.368Z,99.90
2022-11-30T04:09:26.529Z,99.90
2022-11-30T04:12:29.659Z,99.90
2022-11-30T04:15:33.189Z,99.90
2022-11-30T04:18:39.552Z,99.90
2022-11-30T04:21:42.744Z,99.90
2022-11-30T04:24:46.340Z,99.90
2022-11-30T04:27:52.683Z,99.90
2022-11-30T04:30:56.112Z,99.90
2022-11-30T04:34:08.084Z,99.90
2022-11-30T04:37:11.432Z,99.90
2022-11-30T04:40:15.083Z,99.90
2022-11-30T04:43:28.254Z,99.90
2022-11-30T04:46:31.652Z,99.90
2022-11-30T04:49:36.170Z,99.90
2022-11-30T04:52:39.712Z,99.90
2022-11-30T04:55:43.131Z,99.90
2022-11-30T04:58:46.278Z,99.90
2022-11-30T05:01:49.455Z,99.90
2022-11-30T05:04:54.059Z,99.90
2022-11-30T05:07:58.932Z,99.90
2022-11-30T05:11:02.162Z,99.90
2022-11-30T05:14:06.350Z,99.90
2022-11-30T05:17:09.486Z,99.90
2022-11-30T05:20:14.379Z,99.90
2022-11-30T05:23:17.756Z,99.90
2022-11-30T05:26:21.031Z,99.90
2022-11-30T05:29:24.438Z,99.90
2022-11-30T05:32:27.671Z,99.90
2022-11-30T05:35:32.474Z,99.90
2022-11-30T05:38:35.708Z,99.90
2022-11-30T05:41:47.175Z,99.90
2022-11-30T05:44:50.926Z,99.90
2022-11-30T05:47:54.334Z,99.90
2022-11-30T05:51:06.129Z,99.90
2022-11-30T05:54:09.350Z,99.90
2022-11-30T05:57:12.716Z,99.90
2022-11-30T06:00:17.155Z,99.90
2022-11-30T06:03:20.473Z,99.90
2022-11-30T06:06:25.207Z,99.90
2022-11-30T06:09:28.668Z,99.90
2022-11-30T06:12:31.864Z,99.90
2022-11-30T06:15:35.073Z,99.90
2022-11-30T06:18:38.855Z,99.90
2022-11-30T06:21:43.558Z,99.90
2022-11-30T06:24:47.190Z,99.90
2022-11-30T06:27:50.611Z,99.90
2022-11-30T06:30:53.870Z,99.90
2022-11-30T06:33:58.549Z,99.90
2022-11-30T06:37:03.460Z,99.90
2022-11-30T06:40:08.557Z,99.90
2022-11-30T06:43:12.245Z,99.90
2022-11-30T06:46:16.034Z,99.90
2022-11-30T06:49:19.365Z,99.90
2022-11-30T06:52:23.994Z,99.90
2022-11-30T06:55:27.178Z,99.90
2022-11-30T06:58:30.933Z,99.90
2022-11-30T07:01:34.147Z,99.90
2022-11-30T07:04:37.756Z,99.90
2022-11-30T07:07:42.405Z,99.90
2022-11-30T07:10:47.474Z,99.90
2022-11-30T07:13:50.719Z,99.90
2022-11-30T07:16:54.220Z,99.90
2022-11-30T07:19:57.933Z,99.90
2022-11-30T07:23:23.033Z,99.90
2022-11-30T07:26:25.705Z,99.90
2022-11-30T07:29:29.189Z,99.90
2022-11-30T07:32:32.409Z,99.90
2022-11-30T07:35:35.691Z,99.90
2022-11-30T07:38:40.945Z,99.90
2022-11-30T07:41:44.617Z,99.90
2022-11-30T07:44:51.381Z,99.90
2022-11-30T07:47:59.794Z,99.90
2022-11-30T07:51:04.632Z,99.90
2022-11-30T07:54:09.240Z,99.90
2022-11-30T07:57:12.434Z,99.90
2022-11-30T08:00:16.071Z,99.90
2022-11-30T08:03:19.449Z,99.90
2022-11-30T08:06:24.465Z,99.90
2022-11-30T08:09:29.084Z,99.90
2022-11-30T08:12:32.274Z,99.90
2022-11-30T08:15:38.131Z,99.90
2022-11-30T08:18:42.259Z,99.90
2022-11-30T08:21:45.400Z,99.90
2022-11-30T08:24:50.167Z,99.90
2022-11-30T08:27:53.625Z,99.90
2022-11-30T08:31:00.919Z,99.90
2022-11-30T08:34:06.484Z,99.90
2022-11-30T08:37:09.781Z,99.90
2022-11-30T08:40:15.020Z,99.90
2022-11-30T08:43:18.320Z,99.90
2022-11-30T08:49:46.126Z,99.90
2022-11-30T08:52:49.319Z,99.90
2022-11-30T08:56:02.034Z,99.90
2022-11-30T08:59:05.276Z,99.90
2022-11-30T09:02:10.230Z,99.90
2022-11-30T09:05:14.083Z,99.90
2022-11-30T09:08:17.425Z,99.90
2022-11-30T09:11:23.988Z,99.90
2022-11-30T09:14:27.276Z,99.90
2022-11-30T09:17:30.624Z,99.90
2022-11-30T09:20:34.034Z,99.90
2022-11-30T09:23:37.955Z,99.90
2022-11-30T09:26:42.580Z,99.90
2022-11-30T09:29:45.701Z,99.90
2022-11-30T09:32:48.852Z,99.90
2022-11-30T09:35:59.032Z,99.90
2022-11-30T09:39:02.196Z,99.90
2022-11-30T09:42:22.985Z,99.90
2022-11-30T09:45:31.648Z,99.90
2022-11-30T09:48:54.355Z,99.90
2022-11-30T09:52:00.588Z,99.90
2022-11-30T09:55:08.617Z,99.90
2022-11-30T09:58:24.656Z,99.90
2022-11-30T10:01:32.563Z,99.90
2022-11-30T10:04:37.323Z,99.90
2022-11-30T10:07:53.083Z,99.90
2022-11-30T10:11:11.825Z,99.90
2022-11-30T10:14:41.415Z,99.90
2022-11-30T10:17:53.721Z,99.90
2022-11-30T10:21:03.160Z,99.90
2022-11-30T10:24:18.971Z,99.90
2022-11-30T10:27:38.425Z,99.90
2022-11-30T10:30:43.019Z,99.90
2022-11-30T10:33:49.089Z,99.90
2022-11-30T10:37:01.206Z,99.90
2022-11-30T10:40:10.916Z,99.90
2022-11-30T10:43:21.485Z,99.90
2022-11-30T10:46:30.294Z,99.90
2022-11-30T10:49:35.245Z,99.90
2022-11-30T10:52:45.324Z,99.90
2022-11-30T10:55:57.864Z,99.90
2022-11-30T10:59:04.687Z,96.20
2022-11-30T11:02:37.495Z,97.60
2022-11-30T11:05:40.904Z,96.60
2022-11-30T11:08:45.670Z,97.00
2022-11-30T11:11:55.630Z,97.30
2022-11-30T11:15:15.270Z,97.80
2022-11-30T11:18:26.191Z,99.90
2022-11-30T11:21:29.691Z,99.90
2022-11-30T11:24:34.143Z,99.90
2022-11-30T11:27:44.205Z,99.90
2022-11-30T11:30:49.075Z,97.60
2022-11-30T11:33:55.297Z,97.20
2022-11-30T11:37:07.667Z,98.50
2022-11-30T11:40:16.468Z,98.30
2022-11-30T11:43:20.246Z,92.70
2022-11-30T11:46:24.025Z,91.90
2022-11-30T11:49:31.403Z,91.40
2022-11-30T11:52:34.720Z,90.60
2022-11-30T11:55:38.924Z,92.90
2022-11-30T11:58:48.718Z,93.70
2022-11-30T12:01:58.593Z,96.40
2022-11-30T12:05:09.997Z,99.30
2022-11-30T12:08:18.096Z,99.90
2022-11-30T12:11:24.567Z,99.90
2022-11-30T12:14:29.093Z,99.90
2022-11-30T12:17:46.623Z,99.90
2022-11-30T12:20:57.971Z,99.90
2022-11-30T12:24:20.287Z,99.90
2022-11-30T12:27:32.327Z,99.90
2022-11-30T12:30:47.609Z,99.90
2022-11-30T12:34:04.757Z,99.20
2022-11-30T12:37:17.351Z,95.20
2022-11-30T12:40:33.218Z,93.20
2022-11-30T12:43:48.815Z,92.70
2022-11-30T12:46:59.272Z,93.00
2022-11-30T12:50:22.734Z,85.10
2022-11-30T12:53:34.229Z,85.10
2022-11-30T12:56:46.109Z,86.50
2022-11-30T12:59:59.283Z,87.90
2022-11-30T13:03:31.523Z,83.00
2022-11-30T13:06:39.415Z,86.90
2022-11-30T13:09:51.142Z,91.70
2022-11-30T13:12:56.543Z,92.40
2022-11-30T13:16:04.572Z,95.40
2022-11-30T13:19:21.466Z,98.40
2022-11-30T13:22:32.077Z,99.10
2022-11-30T13:26:07.264Z,99.50
2022-11-30T13:29:18.959Z,99.90
2022-11-30T13:32:56.192Z,99.90
2022-11-30T13:35:55.018Z,99.90
2022-11-30T13:39:25.116Z,99.90
2022-11-30T13:42:46.063Z,99.90
2022-11-30T13:46:04.186Z,99.90
2022-11-30T13:49:20.100Z,99.90
2022-11-30T13:53:15.206Z,99.90
2022-11-30T13:56:36.372Z,99.90
2022-11-30T13:59:47.347Z,99.90
2022-11-30T14:02:54.493Z,99.90
2022-11-30T14:05:59.195Z,99.90
2022-11-30T14:09:02.518Z,99.90
2022-11-30T14:12:40.677Z,99.90
2022-11-30T14:15:56.756Z,99.90
2022-11-30T14:19:01.069Z,99.90
2022-11-30T14:22:06.145Z,99.90
2022-11-30T14:25:14.859Z,99.90
2022-11-30T14:28:21.411Z,99.90
2022-11-30T14:31:27.721Z,99.90
2022-11-30T14:34:37.269Z,99.90
2022-11-30T14:37:46.269Z,99.90
2022-11-30T14:40:54.428Z,99.90
2022-11-30T14:44:07.243Z,99.90
2022-11-30T14:47:23.247Z,99.90
2022-11-30T14:50:27.808Z,99.90
2022-11-30T14:53:40.114Z,99.90
2022-11-30T14:56:48.856Z,99.90
2022-11-30T14:59:55.357Z,99.90
2022-11-30T15:03:00.864Z,99.90
2022-11-30T15:06:06.717Z,99.90
2022-11-30T15:09:20.564Z,99.90
2022-11-30T15:12:26.016Z,99.90
2022-11-30T15:15:31.352Z,99.90
2022-11-30T15:18:39.985Z,99.90
2022-11-30T15:21:48.257Z,99.90
2022-11-30T15:24:51.722Z,99.90
2022-11-30T15:27:55.627Z,99.90
2022-11-30T15:31:04.553Z,99.90
2022-11-30T15:34:19.909Z,99.90
2022-11-30T15:37:29.234Z,99.90
2022-11-30T15:40:35.492Z,99.90
2022-11-30T15:43:40.896Z,99.90
2022-11-30T15:46:57.201Z,99.90
2022-11-30T15:50:03.137Z,99.90
2022-11-30T15:53:31.699Z,99.90
2022-11-30T15:56:36.357Z,99.90
2022-11-30T15:59:39.886Z,99.90
2022-11-30T16:02:43.273Z,99.90
2022-11-30T16:05:57.902Z,99.90
2022-11-30T16:09:07.143Z,99.90
2022-11-30T16:12:24.918Z,99.90
2022-11-30T16:15:30.898Z,99.90
2022-11-30T16:18:34.236Z,99.90
2022-11-30T16:21:39.421Z,99.90
2022-11-30T16:24:43.190Z,99.90
2022-11-30T16:27:47.606Z,99.90
2022-11-30T16:30:51.372Z,99.90
2022-11-30T16:33:54.650Z,99.90
2022-11-30T16:36:59.375Z,99.90
2022-11-30T16:40:02.749Z,99.90
2022-11-30T16:43:06.122Z,99.90
2022-11-30T16:46:12.042Z,99.90
2022-11-30T16:49:15.665Z,99.90
2022-11-30T16:52:20.392Z,99.90
2022-11-30T16:55:24.446Z,99.90
2022-11-30T16:58:27.643Z,99.90
2022-11-30T17:01:35.547Z,99.90
2022-11-30T17:04:39.471Z,99.90
2022-11-30T17:07:44.727Z,99.90
2022-11-30T17:10:52.979Z,99.90
2022-11-30T17:13:56.960Z,99.90
2022-11-30T17:17:02.828Z,99.90
2022-11-30T17:20:07.374Z,99.90
2022-11-30T17:23:12.370Z,99.90
2022-11-30T17:26:15.584Z,99.90
2022-11-30T17:29:18.796Z,99.90
2022-11-30T17:32:22.302Z,99.90
2022-11-30T17:35:25.619Z,99.90
2022-11-30T17:38:30.504Z,99.90
2022-11-30T17:41:33.826Z,99.90
2022-11-30T17:44:37.188Z,99.90
2022-11-30T17:47:40.771Z,99.90
2022-11-30T17:50:44.489Z,99.90
2022-11-30T17:53:49.163Z,99.90
2022-11-30T17:56:52.955Z,99.90
2022-11-30T17:59:56.181Z,99.90
2022-11-30T18:02:59.662Z,99.90
2022-11-30T18:06:03.707Z,99.90
2022-11-30T18:09:08.543Z,99.90
2022-11-30T18:12:12.645Z,99.90
2022-11-30T18:15:16.187Z,99.90
2022-11-30T18:18:19.448Z,99.90
2022-11-30T18:21:25.465Z,99.90
2022-11-30T18:24:30.236Z,99.90
2022-11-30T18:27:33.569Z,99.90
2022-11-30T18:30:38.786Z,99.90
2022-11-30T18:33:42.693Z,99.90
2022-11-30T18:36:46.034Z,99.90
2022-11-30T18:39:50.932Z,99.90
2022-11-30T18:42:54.195Z,99.90
2022-11-30T18:46:04.184Z,99.90
2022-11-30T18:49:08.208Z,99.90
2022-11-30T18:52:11.624Z,99.90
2022-11-30T18:55:16.872Z,99.90
2022-11-30T18:58:20.433Z,99.90
2022-11-30T19:01:23.979Z,99.90
2022-11-30T19:04:27.303Z,99.90
2022-11-30T19:07:30.616Z,99.90
2022-11-30T19:10:36.432Z,99.90
2022-11-30T19:13:39.823Z,99.90
2022-11-30T19:16:44.199Z,99.90
2022-11-30T19:19:47.551Z,99.90
2022-11-30T19:22:53.376Z,99.90
2022-11-30T19:26:02.666Z,99.90
2022-11-30T19:29:06.026Z,99.90
2022-11-30T19:32:09.482Z,99.90
2022-11-30T19:35:12.735Z,99.90
2022-11-30T19:38:15.941Z,99.90
2022-11-30T19:41:21.696Z,99.90
2022-11-30T19:44:25.137Z,99.90
2022-11-30T19:47:29.292Z,99.90
2022-11-30T19:50:32.708Z,99.90
2022-11-30T19:53:37.150Z,99.90
2022-11-30T19:56:43.289Z,99.90
2022-11-30T19:59:47.563Z,99.90
2022-11-30T20:02:51.199Z,99.90
2022-11-30T20:05:54.945Z,99.90
2022-11-30T20:08:58.342Z,99.90
2022-11-30T20:12:03.221Z,99.90
2022-11-30T20:15:09.219Z,99.90
2022-11-30T20:18:13.067Z,99.90
2022-11-30T20:21:18.796Z,99.90
2022-11-30T20:24:22.423Z,99.90
2022-11-30T20:27:27.406Z,99.90
2022-11-30T20:30:31.120Z,99.90
2022-11-30T20:33:34.926Z,99.90
2022-11-30T20:36:39.106Z,99.90
2022-11-30T20:39:46.030Z,99.90
2022-11-30T20:42:53.448Z,99.90
2022-11-30T20:45:56.945Z,99.90
2022-11-30T20:49:02.002Z,99.90
2022-11-30T20:52:05.754Z,99.90
2022-11-30T20:55:10.949Z,99.90
2022-11-30T20:58:15.642Z,99.90
2022-11-30T21:01:20.835Z,99.90
2022-11-30T21:04:25.833Z,99.90
2022-11-30T21:07:29.252Z,99.90
2022-11-30T21:10:32.651Z,99.90
2022-11-30T21:13:37.547Z,99.90
2022-11-30T21:16:41.631Z,99.90
2022-11-30T21:19:44.949Z,99.90
2022-11-30T21:22:48.331Z,99.90
2022-11-30T21:25:51.653Z,99.90
2022-11-30T21:29:01.251Z,99.90
2022-11-30T21:32:04.873Z,99.90
2022-11-30T21:35:09.562Z,99.90
2022-11-30T21:38:13.078Z,99.90
2022-11-30T21:41:16.371Z,99.90
2022-11-30T21:44:21.161Z,99.90
2022-11-30T21:47:24.685Z,99.90
2022-11-30T21:50:27.995Z,99.90
2022-11-30T21:53:32.771Z,99.90
2022-11-30T21:56:38.952Z,99.90
2022-11-30T21:59:44.107Z,99.90
2022-11-30T22:02:49.459Z,99.90
2022-11-30T22:06:00.955Z,99.90
2022-11-30T22:09:08.755Z,99.90
2022-11-30T22:12:12.103Z,99.90
2022-11-30T22:15:16.983Z,99.90
2022-11-30T22:18:20.314Z,99.90
2022-11-30T22:21:25.365Z,99.90
2022-11-30T22:24:28.869Z,99.90
2022-11-30T22:27:38.356Z,99.90
2022-11-30T22:30:44.530Z,99.90
2022-11-30T22:33:48.892Z,99.90
2022-11-30T22:36:52.377Z,99.90
2022-11-30T22:39:55.751Z,99.90
2022-11-30T22:42:59.067Z,99.90
2022-11-30T22:46:12.264Z,99.90
2022-11-30T22:49:21.287Z,99.90
2022-11-30T22:52:48.219Z,99.90
2022-11-30T22:55:48.908Z,99.90
2022-11-30T22:58:54.352Z,99.90
2022-11-30T23:01:59.397Z,99.90
2022-11-30T23:05:04.847Z,99.90
2022-11-30T23:08:08.645Z,99.90
2022-11-30T23:11:14.816Z,99.90
2022-11-30T23:14:21.929Z,99.90
2022-11-30T23:17:26.793Z,99.90
2022-11-30T23:20:30.257Z,99.90
2022-11-30T23:23:33.618Z,99.90
2022-11-30T23:26:38.997Z,99.90
2022-11-30T23:29:42.462Z,99.90
2022-11-30T23:32:47.185Z,99.90
2022-11-30T23:35:50.523Z,99.90
2022-11-30T23:38:57.248Z,99.90
2022-11-30T23:42:00.663Z,99.90
2022-11-30T23:45:03.989Z,99.90
2022-11-30T23:48:10.280Z,99.90
2022-11-30T23:51:13.609Z,99.90
2022-11-30T23:54:16.845Z,99.90
2022-11-30T23:57:20.180Z,99.90
